Cincinnati, Ohio
Traffic Map
Current Weather Conditions
Cincinnati, Ohio
Clear Haze
Clear
16°
Feels Like: 16°
Wind Chill: 16° Ceiling: Unl
Heat Index: 16° Visibility: 4mi
Dew Point: 14° Wind: 3mph
Humidity: 87% Direction: 10° (N)
Pressure: 29.89in Gusts: 0mph
Raw Report DataKLUK 010653Z AUTO 01003KT 4SM R21L/3500VP6000FT BR CLR 16/14 A2989 RMK AO2 SLP119 T01610139
Traffic Incident Summary
Active as of:
Severity:
Category:
InformationThere was an issue retrieving the traffic information for this location. Please try a different location or try again shortly.
Advertisements
Track Severe Weather on mobile